AirNav   Bose Proflight or Bose A20?
 
 1474 users online  

KDAA Davison Army Airfield
Fort Belvoir, Virginia, USA

GOING TO FORT BELVOIR?


FAA INFORMATION EFFECTIVE 23 MAY 2019

Location

FAA Identifier: DAA
Lat/Long: 38-42-53.7210N / 077-10-51.2210W
38-42.895350N / 077-10.853683W
38.7149225 / -77.1808947
(estimated)
Elevation: 73.5 ft. / 22.4 m (surveyed)
Variation: 09W (1985)
From city: 3 miles NW of FORT BELVOIR, VA
Time zone: UTC -4 (UTC -5 during Standard Time)
Zip code: 22060

Airport Operations

Airport use: Private use. Permission required prior to landing
Control tower: yes
ARTCC: WASHINGTON CENTER
FSS: LEESBURG FLIGHT SERVICE STATION
NOTAMs facility: DCA (NOTAM-D service available)
Attendance: CONTINUOUS
Pattern altitude: 1173.5 ft. MSL
Segmented circle: no
Lights: AVBL 0230-1100Z++ MON-FRI AND 24 HRS ON WKNDS AND HOLS. WHEN TWR CLSD HIRL RWY 14-32 SET TO PCL. TO INCR INTS ACTIVATE CTAF.
Beacon: white-white-green (lighted military airport)
Operates sunset to sunrise.

Airport Communications

CTAF: 126.3
ATIS: 128.175
DAVIDSON GROUND: 121.9 351.8 [1100-0230Z++ MON-FRI EXC HOL.]
DAVIDSON TOWER: 126.3 229.4 241.0 [1100-0230Z++ MON-FRI EXC HOL.]
POTOMAC APPROACH: 118.95 124.7
POTOMAC DEPARTURE: 118.95 124.7
CLEARANCE DELIVERY: 351.8
ARNG OPS: 52.75
ASR/PAR: 118.85 119.95 248.5 265.6
BASE OPS: 139.4 34.1
CLTCH DP: 118.95
EMERG: 121.5 243.0
FRDMM STAR: 118.675
IRONS STAR: 126.4
JDUBB DP: 118.95
NUMMY STAR: 118.675
PMSV METRO: 139.4
PTD: 139.4 34.1
SCRAM DP: 118.95
TIKEE STAR: 120.45
TRUPS STAR: 118.675
WX ASOS at DCA (11 nm NE): 132.65 (703-412-8140)
WX AWOS-3PT at HEF (16 nm W): PHONE 703-361-6160
WX ASOS at IAD (19 nm NW): PHONE 703-661-2990
  • PAR RWY 32 LOCATED AT LAT 38-43-03.27N LONG 077-10-58.86W. ELEV 44.2.
  • PAR RWY 14 LOCATED AT LAT 38-43-48.92N LONG 077-10-39.54W. ELEV 56.0.
  • VIP ARR CTC BASE OPS 15 MIN PRIOR TO LDG.

Nearby radio navigation aids

VOR radial/distance  VOR name  Freq  Var
DCAr227/11.0WASHINGTON VOR/DME111.0009W
ADWr259/15.7ANDREWS VORTAC113.1010W
AMLr143/18.8ARMEL VOR/DME113.5008W
OTTr282/20.4NOTTINGHAM VORTAC113.7010W
BRVr029/24.1BROOKE VORTAC114.5009W
CSNr088/32.4CASANOVA VORTAC116.3006W
BALr233/36.6BALTIMORE VORTAC115.1011W

 
NDB name  Hdg/Dist  Freq  Var  ID
DAVEE323/4.622309WDAA -.. .- .-
OXONN258/7.833211WDCA -.. -.-. .-
GEORGETOWN201/13.232309WGTN --. - -.
SHANNON035/29.723710WEZF . --.. ..-.
NAILR075/37.435110WMSQ -- ... --.-
ELLICOTT220/39.237111WFND ..-. -. -..

Airport Services

Runway Information

Runway 14/32

Dimensions: 5421 x 75 ft. / 1652 x 23 m
Surface: asphalt
Weight bearing capacity: 
PCN 52 /F/A/W/T
Runway edge lights: high intensity
RUNWAY 14  RUNWAY 32
Latitude: 38-43.202500N38-42.588200N
Longitude: 077-11.267333W077-10.440033W
Elevation: 48.8 ft.73.4 ft.
Traffic pattern: leftleft
Runway heading: 142 magnetic, 133 true322 magnetic, 313 true
Displaced threshold: 501 ft.902 ft.
Visual slope indicator: 2-light PAPI on left (3.00 degrees glide path)
RVR equipment: rollouttouchdown
Approach lights: NATO STD APPROACH LGTS (BP).MALSF: 1,400 foot medium intensity approach lighting system with sequenced flashers
Runway end identifier lights: nono
Touchdown point: yes, no lightsyes, no lights
Instrument approach: ILS/DME

Helipad H1

Dimensions: 50 x 50 ft. / 15 x 15 m
Surface: concrete
Latitude: 38-43.020000N
Longitude: 077-10.789833W
Elevation: 40.0 ft.
Traffic pattern: leftleft

Airport Ownership and Management from official FAA records

Ownership: U.S. Army
Owner: DAVISON ARMY AIRFIELD
US ARMY ATCA-ASO, 6970 BRITTON DR
FT BELVIOR, VA 22060
Manager: Phone 703-664-1201

Additional Remarks

FUEL:FUEL - J8. AVBL 1200-0300Z++ MON-FRI;1330-2130Z++ SAT-SUN,.
MISC-AERODROME BEACON LOCATED 4600' E-NE OF AFLD ON TOP OF DLA BLDG.
RSTD: RWY 14 PAPI ARE NON=STANDARD. VFR USE ONLY.
FOR CD WHEN ATCT IS CLSD CTC POTOMAC APCH AT 866-599-3874.
RSTD: TWY G, H, AND J CLSD FOR NIGHT AND IFR OPS DUE TO BEING UNLIT.
RSTD: HELIPAD 14/32 IS 50 FT BY 50 FT WIDE. LMTD TO H-60 AND SMALLER ACFT OPS.
HAZARDS: RWY 14 INBRD (INGROUND) THLD LGTS ARE REMOVED.
RSTD: HELIPAD 14/32 CLSD FOR NIGHT AND IFR OPS DUE TO BEING UNLIT.
OIL: 0-123-128-148-156.
OFFL BUS ONLY. PPR 24 HR NOTICE FOR ALL N0N DAA BASED ACFT,CTC BASE OPS 1200-2100Z++ WKD, DSN 656-7683/7682, C703-806-7682/7683.
RSTD: 24 HR PPR NVESD RAMP, DSN 656-7675/7676, C703-806-7675/7676.
CAUTON: EXP SHEAR/CROSSWIND SHIFT TDZ RWY 32 DUR SW-NW WIND. BIRD AND DEER HAZ.
TFC PAT: F/W R/W SW 1500', R/W/NE 1100'.
NS ABTMT: TWR WILL ADVS OF RSTD TO ENG RUN-UP, TKOF AND LDG BTN 0300-1300Z++ MON-SAT;2200-1700Z++ SUN AND HOL.
MISC: WITH CTL TWR/OPR APV, DEP ACFT MAY USE RWY APCH END OVRN FOR TKOF ROLL. WX FCST 1100-0230Z++ MON-FRI,EXC HOL, OT REMOTE BRIEFING SVC AVBL 15TH OWS, SCOTT AFB DSN 576-9755, C618-256-9755, FAX EXTN 4855 0R HTTP://OWS.SCOTT.AF.MIL. SEE VFR-S FOR PENTAGON HELIPORT.
ARNG: OPR 24/7. 24 HR PPR FOR TRAN ACFT, DSN 656-7092/7690, C703-806-7092/7690 FAX 7298.

Instrument Procedures

NOTE: All procedures below are presented as PDF files. If you need a reader for these files, you should download the free Adobe Reader.

NOT FOR NAVIGATION. Please procure official charts for flight.
FAA instrument procedures published for use from 23 May 2019 at 0901Z to 20 June 2019 at 0900Z.

 
STARs - Standard Terminal Arrivals
FRDMM FOUR (RNAV)   2 pages: [1] [2] (436KB)
NUMMY TWO   download (289KB)
TIKEE THREE (RNAV)   download (213KB)
TRUPS FOUR (RNAV)   2 pages: [1] [2] (460KB)
 
IAPs - Instrument Approach Procedures
ILS OR LOC RWY 32   download (145KB)
RNAV (GPS) RWY 14   download (66KB)
RNAV (GPS) RWY 32   download (104KB)
NDB RWY 32   download (131KB)
Radar Approach Procedures available   download
 
Departure Procedures
CLTCH TWO (RNAV)   download (149KB)
JDUBB TWO (RNAV)   download (156KB)
SCRAM FOUR (RNAV)   download (144KB)
NOTE: Special Take-Off Minimums/Departure Procedures apply   download (217KB)

Other nearby airports with instrument procedures:

2W5 - Maryland Airport (9 nm SE)
KDCA - Ronald Reagan Washington National Airport (11 nm NE)
KVKX - Potomac Airfield (11 nm E)
W32 - Washington Executive Airport/Hyde Field (12 nm E)
KNYG - Quantico Marine Corps Airfield / Turner Field (14 nm SW)
KHEF - Manassas Regional Airport/Harry P. Davis Field (16 nm W)
KADW - Joint Base Andrews (16 nm E)
KIAD - Washington Dulles International Airport (19 nm NW)
 
Loc | Ops | Rwys | IFR | FBO | Links
Com | Nav | Svcs | Stats | Notes
Area around KDAA (Davison Army Airfield)
 
Road maps at: MapQuest Bing Google
 
Aerial photo
WARNING: Photo may not be current or correct
Aerial photo of KDAA (Davison Army Airfield)
Photo by Jeff Long, SkyFocal.com
Photo taken 05-Nov-2011
looking northwest.

Do you have a better or more recent aerial photo of Davison Army Airfield that you would like to share? If so, please send us your photo.

 
Sectional chart

 
Airport distance calculator
Flying to Davison Army Airfield? Find the distance to fly.

From to KDAA

Sunrise and sunset
Times for 18-Jun-2019
 Local
(UTC-4)
 Zulu
(UTC)
Morning civil twilight05:1309:13
Sunrise05:4509:45
Sunset20:3500:35
Evening civil twilight21:0701:07

Current date and time
Zulu (UTC)  18-Jun-2019 14:17:41
Local (UTC-4)  18-Jun-2019 10:17:41
 
METAR
KDAA 181356Z AUTO 30003KT 10SM FEW009 25/22 A2994 RMK AO2 SLP141 T02490218 $
KDCA 
11nm NE 
181352Z 15004KT 10SM FEW013 FEW110 SCT160 BKN250 25/22 A2994 RMK AO2 SLP137 T02500222
KVKX 
11nm E 
SuperAWOS
181355Z AUTO 24004KT 10SM 24/22 A2994
KNYG 
14nm S 
181356Z 32003KT 10SM BKN090 BKN120 26/22 A2994 RMK AO2 SLP141 T02560222
KHEF 
16nm W 
181356Z 00000KT 10SM BKN009 24/22 A2995 RMK AO2 SLP149 T02440222 PNO $
KADW 
16nm NE 
181356Z AUTO 26003KT 10SM FEW130 FEW160 SCT190 SCT210 25/22 A2994 RMK AO2 SLP143 T02500219 $
KIAD 
18nm NW 
181352Z 00000KT 10SM FEW005 BKN110 BKN220 26/21 A2994 RMK AO2 SLP136 T02560211 $
TAF
KDAA 180900Z 1809/1915 24006KT 9999 FEW025 BKN065 QNH2990INS BECMG 1815/1816 25009KT 9000 -SHRA BKN035 OVC140 QNH2984INS TEMPO 1818/1823 26025G35KT 2400 -TSRA BKN035CB OVC120 BECMG 1906/1907 18006KT 9999 NSW BKN025 OVC130 QNH2978INS BECMG 1911/1912 VRB06KT 8000 BR SCT007 QNH2985INS TX30/1817Z TN21/1908Z
KDCA 
11nm NE 
181141Z 1812/1918 21004KT P6SM FEW005 BKN150 FM181800 26007KT 5SM -SHRA VCTS SCT025CB OVC045 FM190300 20004KT 6SM -SHRA SCT020 OVC035 FM190900 20004KT 6SM -SHRA OVC020
KNYG 
14nm S 
1809/1909 22007KT 9999 FEW080 QNH2993INS BECMG 1811/1813 24006KT 9999 SCT060 QNH2990INS BECMG 1814/1816 26007KT 9999 BKN050 QNH2988INS FM181800 29011KT 8000 -TSRA BKN040CB OVC020 QNH2986INS BECMG 1821/1823 9999 NSW FM190100 13006KT 8000 -TSRA OVC020CB QNH2984INS T21/1810Z T32/1818Z
KADW 
16nm NE 
180900Z 1809/1915 24006KT 9999 FEW050 BKN120 BKN250 QNH2989INS BECMG 1815/1816 25009KT 9999 -SHRA BKN050 BKN120 BKN250 QNH2983INS TEMPO 1820/1901 26025G35KT 1600 +TSRA BKN035CB OVC120 BECMG 1901/1902 VRB04KT 6000 -SHRA BR BKN050 OVC120 QNH2980INS BECMG 1906/1907 18006KT 9999 NSW SCT050 OVC120 QNH2976INS BECMG 1911/1912 VRB06KT 8000 BR SCT007 QNH2983INS TX32/1819Z TN21/1809Z
KIAD 
18nm NW 
181141Z 1812/1918 14003KT 6SM BR FEW005 BKN100 FM181800 23005KT 5SM -SHRA VCTS SCT025CB OVC040 FM190300 19004KT 6SM -SHRA SCT020 OVC035 FM190900 19004KT 5SM -SHRA OVC020
NOTAMs
Click for the latest NOTAMs
NOTAMs are issued by the DoD/FAA and will open in a separate window not controlled by AirNav.

 

 
 

Would you like to see your business listed on this page?

 If your business provides an interesting product or service to pilots, flight crews, aircraft, or users of the Davison Army Airfield, you should consider listing it here.  To start the listing process, click on the button below
 
Add a business
 

Other Pages about Davison Army Airfield

Update a link
 
Copyright © AirNav, LLC. All rights reserved. Privacy Policy  Contact